Time;durP1;ratioP1;P1;durP2;ratioP2;P2;SDS_P1;SDS_P2;PMS_P1;PMS_P2;Temp;Humidity;BMP_temperature;BMP_pressure;BME280_temperature;BME280_humidity;BME280_pressure;Samples;Min_cycle;Max_cycle;Signal;HPM_P1;HPM_P2
2022/03/13 00:02:17;;;;;;;20.63;11.73;;;;;;;1.95;44.59;95650.00;5048838;28;20202;-78
2022/03/13 00:04:44;;;;;;;17.23;11.13;;;;;;;1.92;44.79;95652.63;5050985;28;20195;-80
2022/03/13 00:07:18;;;;;;;22.37;11.63;;;;;;;1.88;44.68;95651.94;5050259;28;20202;-81
2022/03/13 00:09:46;;;;;;;17.87;10.23;;;;;;;1.83;44.58;95638.69;5050399;28;20317;-79
2022/03/13 00:12:14;;;;;;;18.20;10.90;;;;;;;1.81;44.58;95639.63;5038462;28;20307;-79
2022/03/13 00:14:42;;;;;;;18.10;10.93;;;;;;;1.86;44.52;95646.16;5050403;28;20245;-77
2022/03/13 00:17:11;;;;;;;16.27;10.03;;;;;;;1.78;44.53;95634.72;5049604;28;20738;-79
2022/03/13 00:19:38;;;;;;;18.50;10.27;;;;;;;1.83;44.41;95642.91;5049913;28;20202;-77
2022/03/13 00:22:06;;;;;;;15.63;10.20;;;;;;;1.82;44.65;95642.09;5050245;28;20207;-77
2022/03/13 00:24:35;;;;;;;18.40;11.37;;;;;;;1.80;44.54;95643.03;5049923;28;20234;-79
2022/03/13 00:27:03;;;;;;;23.60;11.17;;;;;;;1.80;44.38;95648.06;5048358;28;20229;-83
2022/03/13 00:29:30;;;;;;;18.17;10.67;;;;;;;1.73;44.60;95628.16;5050276;28;20293;-76
2022/03/13 00:31:57;;;;;;;15.93;9.93;;;;;;;1.75;44.64;95633.94;5037817;28;20192;-76
2022/03/13 00:34:24;;;;;;;14.23;10.07;;;;;;;1.75;44.75;95643.22;5030377;28;20203;-79
2022/03/13 00:36:50;;;;;;;14.80;10.00;;;;;;;1.72;44.71;95641.63;5029999;28;20274;-79
2022/03/13 00:39:17;;;;;;;14.63;9.87;;;;;;;1.72;44.73;95644.16;5030220;28;20188;-79
2022/03/13 00:41:46;;;;;;;16.00;10.40;;;;;;;1.72;44.34;95636.59;5030159;28;20213;-78
2022/03/13 00:44:13;;;;;;;19.10;10.27;;;;;;;1.68;44.57;95642.63;5030208;28;20188;-76
2022/03/13 00:46:40;;;;;;;15.23;10.10;;;;;;;1.66;44.65;95639.38;5030815;28;20648;-83
2022/03/13 00:49:07;;;;;;;14.67;9.77;;;;;;;1.58;44.70;95632.97;5029769;28;20236;-83
2022/03/13 00:51:34;;;;;;;16.37;9.50;;;;;;;1.64;44.60;95636.09;5037184;28;20194;-85
2022/03/13 00:54:01;;;;;;;14.17;9.80;;;;;;;1.63;44.62;95629.38;5049613;28;20677;-84
2022/03/13 00:56:28;;;;;;;15.07;8.73;;;;;;;1.62;44.82;95626.94;5050186;28;20709;-83
2022/03/13 00:58:56;;;;;;;15.80;9.93;;;;;;;1.60;44.64;95623.66;5049513;28;20195;-81
2022/03/13 01:01:23;;;;;;;16.80;9.47;;;;;;;1.59;44.65;95622.81;5050023;28;20195;-83
2022/03/13 01:03:52;;;;;;;16.23;9.40;;;;;;;1.59;44.57;95619.50;5050051;28;20198;-80
2022/03/13 01:06:20;;;;;;;15.87;10.07;;;;;;;1.58;45.05;95620.38;5049761;28;20199;-78
2022/03/13 01:08:48;;;;;;;16.70;10.17;;;;;;;1.49;44.98;95599.69;5049767;28;20230;-78
2022/03/13 01:11:19;;;;;;;13.80;10.03;;;;;;;1.54;44.76;95609.59;5049169;28;20671;-83
2022/03/13 01:13:47;;;;;;;20.50;9.67;;;;;;;1.53;44.80;95602.91;5049812;28;20190;-79
2022/03/13 01:16:18;;;;;;;16.80;9.27;;;;;;;1.49;44.79;95599.69;5051839;28;20199;-77
2022/03/13 01:18:46;;;;;;;15.27;9.33;;;;;;;1.42;44.83;95590.72;5050456;28;20239;-80
2022/03/13 01:21:13;;;;;;;16.00;9.43;;;;;;;1.41;44.93;95585.75;5050085;28;20195;-82
2022/03/13 01:23:41;;;;;;;16.50;9.80;;;;;;;1.46;45.12;95591.44;5050060;28;20199;-83
2022/03/13 01:26:36;;;;;;;13.77;9.37;;;;;;;1.45;45.07;95587.28;5050072;28;20191;-83
2022/03/13 01:29:06;;;;;;;18.97;9.53;;;;;;;1.41;45.37;95585.75;4969996;28;20658;-84
2022/03/13 01:31:36;;;;;;;16.43;9.80;;;;;;;1.41;45.17;95588.28;4961406;28;20197;-84
2022/03/13 01:34:04;;;;;;;13.47;8.30;;;;;;;1.39;45.23;95585.00;4953365;29;20194;-81
2022/03/13 01:36:31;;;;;;;16.50;9.63;;;;;;;1.34;45.16;95575.09;4953170;28;20258;-80
2022/03/13 01:39:00;;;;;;;14.87;9.10;;;;;;;1.32;45.31;95566.78;4953180;29;20205;-82
2022/03/13 01:41:29;;;;;;;14.27;9.17;;;;;;;1.36;45.06;95568.28;4951005;29;20191;-80
2022/03/13 01:43:57;;;;;;;11.50;8.10;;;;;;;1.37;45.36;95576.66;4952833;29;20190;-83
2022/03/13 01:46:23;;;;;;;16.73;9.77;;;;;;;1.35;45.06;95581.78;4952993;29;20682;-83
2022/03/13 01:48:58;;;;;;;14.70;9.13;;;;;;;1.29;45.58;95579.47;4952816;29;20781;-80
2022/03/13 01:51:26;;;;;;;14.10;9.00;;;;;;;1.32;45.33;95588.63;4964575;28;20702;-81
2022/03/13 01:53:54;;;;;;;17.67;9.43;;;;;;;1.31;45.17;95587.00;4970183;28;20281;-81
2022/03/13 01:56:22;;;;;;;14.93;8.77;;;;;;;1.29;45.44;95584.53;4971802;28;20206;-81
2022/03/13 01:58:51;;;;;;;14.70;8.70;;;;;;;1.28;45.11;95587.13;4972204;28;20204;-81
2022/03/13 02:01:18;;;;;;;13.93;8.90;;;;;;;1.27;45.49;95598.91;4972315;28;20218;-84
2022/03/13 02:03:45;;;;;;;15.07;8.60;;;;;;;1.12;45.30;95574.28;4977166;28;20189;-82
2022/03/13 02:06:13;;;;;;;14.83;8.50;;;;;;;1.24;45.03;95594.78;5050426;28;20198;-83
2022/03/13 02:08:41;;;;;;;16.83;8.83;;;;;;;1.21;45.15;95594.09;5053084;28;20226;-82
2022/03/13 02:11:08;;;;;;;15.53;8.87;;;;;;;1.22;45.49;95604.13;5041408;28;20212;-83
2022/03/13 02:13:36;;;;;;;15.40;7.93;;;;;;;1.21;45.47;95594.91;5032722;28;20191;-82
2022/03/13 02:16:03;;;;;;;19.60;9.97;;;;;;;1.19;45.27;95595.84;5032732;28;20279;-80
2022/03/13 02:18:30;;;;;;;18.07;9.37;;;;;;;1.20;45.85;95595.78;5032914;28;20574;-81
2022/03/13 02:20:57;;;;;;;15.13;9.97;;;;;;;1.19;45.51;95595.84;5032497;28;20642;-84
2022/03/13 02:23:27;;;;;;;21.20;12.47;;;;;;;1.18;45.81;95596.72;5033031;28;20617;-79
2022/03/13 02:25:56;;;;;;;20.43;12.70;;;;;;;1.08;45.96;95581.16;5033019;28;20202;-79
2022/03/13 02:28:25;;;;;;;24.87;13.63;;;;;;;1.12;46.37;95597.78;5033203;28;20184;-82
2022/03/13 02:30:53;;;;;;;24.60;14.27;;;;;;;1.10;46.85;95608.78;5042639;28;20392;-79
2022/03/13 02:33:22;;;;;;;29.03;15.57;;;;;;;0.99;46.64;95581.47;5052590;28;20650;-82
2022/03/13 02:35:53;;;;;;;26.60;15.27;;;;;;;1.06;46.75;95602.22;5052084;28;20218;-83
2022/03/13 02:38:20;;;;;;;30.23;16.47;;;;;;;0.99;46.49;95594.91;5053232;28;20187;-77
2022/03/13 02:40:49;;;;;;;28.43;15.37;;;;;;;1.07;47.01;95607.19;5051411;28;20210;-79
2022/03/13 02:43:17;;;;;;;31.67;17.80;;;;;;;1.04;47.21;95599.78;5051156;28;20210;-80
2022/03/13 02:45:44;;;;;;;29.73;16.60;;;;;;;0.93;47.29;95586.75;5052166;28;20665;-82
2022/03/13 02:48:12;;;;;;;30.03;16.10;;;;;;;1.00;47.02;95604.09;5052376;28;20202;-78
2022/03/13 02:50:40;;;;;;;29.00;16.00;;;;;;;0.91;47.51;95591.88;5041480;28;20242;-77
2022/03/13 02:53:08;;;;;;;29.50;16.70;;;;;;;0.98;47.25;95612.59;5032109;28;20234;-77
2022/03/13 02:55:35;;;;;;;36.10;17.37;;;;;;;0.96;47.53;95612.66;5032001;28;20192;-78
2022/03/13 02:58:04;;;;;;;30.10;17.47;;;;;;;0.94;47.42;95609.34;5031614;28;20219;-79
2022/03/13 03:00:47;;;;;;;28.90;16.47;;;;;;;0.94;47.66;95601.81;5031985;28;20199;-78
2022/03/13 03:03:16;;;;;;;25.70;17.13;;;;;;;0.91;47.64;95598.59;5031799;28;20648;-79
2022/03/13 03:05:43;;;;;;;32.90;17.57;;;;;;;0.85;47.71;95587.03;5031283;28;20191;-78
2022/03/13 03:08:10;;;;;;;29.90;15.90;;;;;;;0.89;47.50;95593.59;5031840;28;20184;-76
2022/03/13 03:10:37;;;;;;;31.07;17.80;;;;;;;0.76;47.89;95572.28;5042741;28;20581;-76
2022/03/13 03:13:07;;;;;;;28.47;16.60;;;;;;;0.88;47.74;95593.69;5050882;28;20194;-77
2022/03/13 03:15:35;;;;;;;26.83;15.07;;;;;;;0.86;47.79;95600.44;5051782;28;20187;-78
2022/03/13 03:18:04;;;;;;;28.33;14.87;;;;;;;0.86;47.78;95595.41;5050993;28;20187;-78
2022/03/13 03:20:31;;;;;;;29.80;14.87;;;;;;;0.83;47.60;95588.00;5051161;28;20639;-78
2022/03/13 03:22:58;;;;;;;23.70;15.20;;;;;;;0.80;47.76;95583.88;5050790;28;20198;-76
2022/03/13 03:25:27;;;;;;;28.93;15.53;;;;;;;0.76;47.76;95577.31;5051418;28;20187;-77
2022/03/13 03:27:57;;;;;;;24.90;13.60;;;;;;;0.81;47.45;95592.25;5051140;28;20202;-79
2022/03/13 03:30:27;;;;;;;25.40;13.50;;;;;;;0.81;47.42;95587.22;5039809;28;20222;-78
2022/03/13 03:32:55;;;;;;;24.80;13.23;;;;;;;0.73;47.39;95577.44;5031028;28;20678;-77
2022/03/13 03:35:24;;;;;;;24.83;13.50;;;;;;;0.78;47.42;95580.63;5031632;28;20195;-77
2022/03/13 03:37:53;;;;;;;26.30;13.63;;;;;;;0.76;47.28;95577.31;5031151;28;20281;-80
2022/03/13 03:40:22;;;;;;;24.33;12.83;;;;;;;0.72;46.99;95571.56;5031661;28;20192;-78
2022/03/13 03:42:49;;;;;;;22.07;12.43;;;;;;;0.76;47.20;95582.34;5031498;28;20638;-79
2022/03/13 03:45:17;;;;;;;18.80;11.03;;;;;;;0.70;46.75;95567.50;5031753;28;20195;-79
2022/03/13 03:47:46;;;;;;;20.37;12.23;;;;;;;0.75;46.69;95573.16;5031371;28;20223;-77
2022/03/13 03:50:13;;;;;;;16.87;10.43;;;;;;;0.70;46.68;95573.34;5035183;28;20286;-79
2022/03/13 03:52:40;;;;;;;20.77;11.43;;;;;;;0.74;46.72;95581.59;5035560;28;20200;-77
2022/03/13 03:55:07;;;;;;;21.00;11.53;;;;;;;0.69;46.39;95571.72;5034257;28;20706;-77
2022/03/13 03:57:35;;;;;;;15.80;9.83;;;;;;;0.74;46.78;95572.34;5032169;28;20196;-79
2022/03/13 04:00:02;;;;;;;21.93;11.83;;;;;;;0.80;46.47;95578.84;5030914;28;20722;-79
2022/03/13 04:02:29;;;;;;;17.37;10.83;;;;;;;0.80;46.59;95578.84;5031392;28;20196;-80
2022/03/13 04:04:57;;;;;;;16.93;10.37;;;;;;;0.80;46.33;95575.50;5031023;28;20226;-81
2022/03/13 04:07:24;;;;;;;19.77;11.13;;;;;;;0.82;46.13;95583.81;5030870;28;21011;-81
2022/03/13 04:09:51;;;;;;;17.47;10.83;;;;;;;0.82;46.30;95581.28;5039995;28;20749;-79
2022/03/13 04:12:18;;;;;;;21.53;11.97;;;;;;;0.84;46.19;95577.03;5050789;28;20574;-77
2022/03/13 04:14:45;;;;;;;27.53;12.67;;;;;;;0.87;46.20;95575.22;5050378;28;20646;-79
2022/03/13 04:17:11;;;;;;;24.23;13.37;;;;;;;0.89;46.24;95572.66;5050439;28;20658;-77
2022/03/13 04:19:38;;;;;;;26.90;13.23;;;;;;;0.84;46.32;95556.91;5050601;28;20187;-77
2022/03/13 04:22:07;;;;;;;23.70;13.13;;;;;;;0.92;46.90;95570.03;5050385;28;20187;-79
2022/03/13 04:24:34;;;;;;;21.27;12.93;;;;;;;0.94;47.01;95565.72;5050450;28;20749;-80
2022/03/13 04:27:00;;;;;;;22.53;14.20;;;;;;;0.93;46.72;95562.41;5050253;28;20248;-77
2022/03/13 04:29:29;;;;;;;25.63;13.23;;;;;;;0.93;46.94;95556.53;5042056;28;20220;-77
2022/03/13 04:31:57;;;;;;;20.60;13.17;;;;;;;0.95;46.91;95554.78;5030374;28;20670;-80
2022/03/13 04:34:24;;;;;;;23.33;12.07;;;;;;;0.96;46.66;95559.78;5030246;28;20567;-78
2022/03/13 04:36:51;;;;;;;19.23;11.87;;;;;;;0.93;46.48;95547.28;5030017;28;20219;-80
2022/03/13 04:39:19;;;;;;;20.77;13.27;;;;;;;0.98;46.64;95557.19;5030105;28;20183;-75
2022/03/13 04:41:46;;;;;;;23.77;13.13;;;;;;;0.98;46.74;95555.47;5029847;28;20191;-79
2022/03/13 04:44:14;;;;;;;25.03;14.80;;;;;;;0.91;46.74;95554.09;5030394;28;20198;-79
2022/03/13 04:46:42;;;;;;;27.70;15.03;;;;;;;0.95;46.50;95559.81;5030099;28;20286;-78
2022/03/13 04:49:10;;;;;;;28.90;15.30;;;;;;;0.93;46.85;95552.31;5036115;28;20280;-78
2022/03/13 04:51:39;;;;;;;29.20;15.47;;;;;;;0.96;46.90;95564.81;5049931;28;20199;-77
2022/03/13 04:54:06;;;;;;;27.53;15.43;;;;;;;0.91;47.02;95559.13;5050050;28;20236;-78
2022/03/13 04:56:34;;;;;;;25.10;15.53;;;;;;;0.99;46.88;95558.81;5050002;28;20206;-77
2022/03/13 04:59:01;;;;;;;25.90;14.30;;;;;;;1.00;46.97;95563.00;5050157;28;20253;-77
2022/03/13 05:01:28;;;;;;;26.30;14.50;;;;;;;0.98;46.92;95560.53;5049746;28;20562;-79
2022/03/13 05:03:55;;;;;;;28.07;14.70;;;;;;;1.03;46.90;95562.03;5050842;28;20187;-79
2022/03/13 05:06:22;;;;;;;24.13;13.73;;;;;;;1.04;46.69;95568.72;5053870;28;20205;-79
2022/03/13 05:08:50;;;;;;;27.50;13.50;;;;;;;1.07;46.66;95563.56;5052926;28;20322;-78
2022/03/13 05:11:17;;;;;;;20.90;13.33;;;;;;;1.11;46.82;95572.66;5053538;28;20701;-78
2022/03/13 05:13:45;;;;;;;17.97;12.43;;;;;;;1.10;46.64;95564.28;5054153;28;20190;-77
2022/03/13 05:16:12;;;;;;;17.73;12.03;;;;;;;1.16;46.66;95566.53;5053678;28;20183;-79
2022/03/13 05:18:39;;;;;;;19.30;12.13;;;;;;;1.20;46.64;95572.28;5053882;28;20222;-79
2022/03/13 05:21:06;;;;;;;19.87;11.63;;;;;;;1.16;46.38;95566.53;5053885;28;20179;-79
2022/03/13 05:23:33;;;;;;;20.93;11.60;;;;;;;1.29;46.39;95583.72;5053239;28;20274;-78
2022/03/13 05:26:00;;;;;;;16.50;10.97;;;;;;;1.34;46.22;95574.25;5053593;28;20628;-77
2022/03/13 05:28:27;;;;;;;17.20;10.40;;;;;;;1.39;46.25;95580.78;5049155;28;20222;-78
2022/03/13 05:30:55;;;;;;;16.13;10.83;;;;;;;1.46;46.23;95578.81;5033527;28;20227;-76
2022/03/13 05:33:22;;;;;;;16.13;10.40;;;;;;;1.53;46.22;95582.75;5033185;28;20199;-78
2022/03/13 05:35:49;;;;;;;19.90;11.10;;;;;;;1.45;46.26;95559.56;5033626;28;20200;-76
2022/03/13 05:38:16;;;;;;;15.70;10.83;;;;;;;1.64;45.95;95583.16;5033234;28;20192;-77
2022/03/13 05:40:43;;;;;;;19.93;10.37;;;;;;;1.70;45.92;95570.28;5033900;28;20198;-78
2022/03/13 05:43:12;;;;;;;14.63;10.13;;;;;;;1.82;45.93;95576.53;5033321;28;20196;-77
2022/03/13 05:45:41;;;;;;;16.43;10.40;;;;;;;1.93;45.81;95589.50;5033843;28;20183;-78
2022/03/13 05:48:13;;;;;;;20.40;11.73;;;;;;;2.04;45.68;95586.56;5035823;28;20278;-78
2022/03/13 05:50:40;;;;;;;14.60;10.03;;;;;;;2.14;45.45;95585.28;5053362;28;20211;-78
2022/03/13 05:53:07;;;;;;;19.13;11.60;;;;;;;2.25;45.47;95585.66;5037131;28;20253;-78
2022/03/13 05:55:34;;;;;;;18.83;10.60;;;;;;;2.31;45.03;95584.56;5034688;28;20187;-80
2022/03/13 05:58:02;;;;;;;19.20;12.03;;;;;;;2.49;44.83;95591.31;5033216;28;20195;-77
2022/03/13 06:00:32;;;;;;;18.97;11.93;;;;;;;2.62;44.66;95591.63;5035516;28;20202;-77
2022/03/13 06:03:00;;;;;;;20.83;11.77;;;;;;;2.69;44.52;95584.59;5050727;28;20210;-79
2022/03/13 06:05:34;;;;;;;18.43;11.43;;;;;;;2.91;44.65;95592.84;5050289;28;20187;-81
2022/03/13 06:08:01;;;;;;;18.80;11.20;;;;;;;3.06;44.49;95593.03;5049806;28;20191;-82
2022/03/13 06:10:29;;;;;;;21.40;12.47;;;;;;;3.05;44.13;95569.47;5030661;28;20575;-80
2022/03/13 06:12:56;;;;;;;16.93;12.03;;;;;;;3.37;44.25;95598.31;5030550;28;20658;-82
2022/03/13 06:15:23;;;;;;;17.83;11.97;;;;;;;3.53;44.17;95596.69;5030210;28;20188;-78
2022/03/13 06:17:51;;;;;;;17.60;12.50;;;;;;;3.67;43.75;95603.66;5040609;28;20206;-78
2022/03/13 06:20:18;;;;;;;19.50;13.03;;;;;;;3.77;43.69;95592.19;5048928;28;20537;-80
2022/03/13 06:22:48;;;;;;;20.47;12.30;;;;;;;4.01;43.68;95599.44;5036679;28;20195;-82
2022/03/13 06:25:16;;;;;;;18.63;11.97;;;;;;;4.17;43.35;95602.06;5049715;28;20207;-82
2022/03/13 06:27:44;;;;;;;18.67;11.70;;;;;;;4.48;43.12;95602.13;5030461;28;20195;-77
2022/03/13 06:30:15;;;;;;;18.50;12.77;;;;;;;4.90;42.91;95600.81;5036432;28;20227;-81
2022/03/13 06:32:43;;;;;;;20.60;12.97;;;;;;;5.41;43.07;95604.00;5045769;28;20253;-83
2022/03/13 06:35:11;;;;;;;16.10;11.70;;;;;;;6.02;43.00;95604.84;5039871;28;20191;-82
2022/03/13 06:37:38;;;;;;;20.57;13.33;;;;;;;6.64;42.80;95605.44;5048602;28;20223;-79
2022/03/13 06:40:10;;;;;;;21.20;13.27;;;;;;;7.28;42.79;95595.63;5047593;28;20276;-86
2022/03/13 06:42:38;;;;;;;20.90;14.50;;;;;;;8.10;42.35;95611.66;5051191;28;20190;-85
2022/03/13 06:45:06;;;;;;;20.97;13.27;;;;;;;8.89;41.64;95613.19;5050018;28;20206;-84
2022/03/13 06:47:34;;;;;;;19.33;12.77;;;;;;;9.70;40.86;95610.09;5049160;28;20187;-84
2022/03/13 06:50:01;;;;;;;18.53;12.43;;;;;;;10.51;39.96;95611.84;5048431;28;20571;-85
2022/03/13 06:52:28;;;;;;;18.33;13.03;;;;;;;11.33;38.88;95616.72;5051485;28;20191;-82
2022/03/13 06:54:55;;;;;;;21.60;12.93;;;;;;;12.11;37.98;95610.53;5050162;28;20195;-84
2022/03/13 06:57:23;;;;;;;18.57;12.90;;;;;;;12.89;36.80;95604.06;5051571;28;20191;-87
2022/03/13 06:59:50;;;;;;;19.37;12.03;;;;;;;13.67;35.76;95605.09;5047450;28;20199;-86
2022/03/13 07:02:17;;;;;;;19.37;11.53;;;;;;;14.37;34.52;95595.44;5049248;28;20194;-87
2022/03/13 07:04:43;;;;;;;19.43;11.80;;;;;;;15.09;33.47;95589.69;5050549;28;20198;-87
2022/03/13 07:07:10;;;;;;;22.03;12.43;;;;;;;15.74;32.63;95590.38;5048417;28;20202;-85
2022/03/13 07:09:37;;;;;;;18.37;12.07;;;;;;;16.37;31.59;95591.22;5048134;28;20186;-80
2022/03/13 07:12:11;;;;;;;17.03;12.40;;;;;;;16.95;30.82;95593.19;5048093;28;20210;-84
2022/03/13 07:14:44;;;;;;;21.43;13.10;;;;;;;17.36;30.00;95555.38;5050085;28;20210;-85
2022/03/13 07:17:10;;;;;;;19.13;13.13;;;;;;;18.08;29.38;95578.13;5048791;28;20193;-81
2022/03/13 07:19:37;;;;;;;18.47;13.00;;;;;;;18.56;28.84;95579.84;5047048;28;20199;-84
2022/03/13 07:22:05;;;;;;;17.63;12.20;;;;;;;19.06;28.32;95578.75;5047876;28;20549;-84
2022/03/13 07:24:32;;;;;;;20.60;13.37;;;;;;;19.48;27.88;95581.00;5052419;28;20191;-84
2022/03/13 07:26:59;;;;;;;21.93;13.60;;;;;;;19.87;27.65;95579.34;5055079;28;20191;-83
2022/03/13 07:29:26;;;;;;;24.30;14.23;;;;;;;20.12;27.29;95574.75;5056725;28;20190;-80
2022/03/13 07:31:56;;;;;;;22.07;14.83;;;;;;;20.51;26.95;95587.59;5054787;28;20241;-78
2022/03/13 07:34:23;;;;;;;22.33;14.60;;;;;;;20.84;26.67;95598.47;5047919;28;20272;-80
2022/03/13 07:36:51;;;;;;;24.23;14.43;;;;;;;21.10;26.27;95599.81;5047325;28;20466;-84
2022/03/13 07:39:18;;;;;;;26.37;14.23;;;;;;;21.32;26.12;95587.69;5048126;28;20290;-82
2022/03/13 07:41:45;;;;;;;16.10;13.57;;;;;;;21.62;25.67;95602.25;5048031;28;20190;-83
2022/03/13 07:44:14;;;;;;;20.63;15.07;;;;;;;21.76;25.45;95591.03;5047771;28;20588;-84
2022/03/13 07:46:41;;;;;;;18.63;15.07;;;;;;;22.03;25.36;95591.28;5045968;28;20206;-81
2022/03/13 07:49:10;;;;;;;20.10;15.60;;;;;;;22.23;24.99;95600.06;5047548;28;20190;-78
2022/03/13 07:51:37;;;;;;;21.73;15.60;;;;;;;22.34;24.67;95588.34;5047484;28;20720;-81
2022/03/13 07:54:04;;;;;;;22.10;15.02;;;;;;;22.57;24.53;95595.94;5046508;28;20201;-88
2022/03/13 07:56:33;;;;;;;20.92;15.55;;;;;;;22.68;24.32;95589.41;5045036;28;20245;-88
2022/03/13 07:58:59;;;;;;;22.95;16.67;;;;;;;22.78;23.99;95593.28;5048301;28;20195;-81
2022/03/13 08:01:26;;;;;;;20.25;15.55;;;;;;;22.86;23.87;95588.91;5047965;28;20282;-83
2022/03/13 08:03:53;;;;;;;21.48;15.20;;;;;;;22.94;23.80;95586.19;5042881;28;20195;-84
2022/03/13 08:06:21;;;;;;;22.33;14.98;;;;;;;23.02;23.57;95578.19;5046626;28;20187;-80
2022/03/13 08:08:48;;;;;;;21.20;15.98;;;;;;;22.96;23.18;95552.88;5047770;28;20685;-86
2022/03/13 08:11:15;;;;;;;23.92;15.32;;;;;;;23.16;22.94;95577.25;5048660;28;20219;-88
2022/03/13 08:13:42;;;;;;;21.73;14.82;;;;;;;23.14;23.06;95565.38;5047830;28;20232;-85
2022/03/13 08:16:09;;;;;;;20.67;15.63;;;;;;;23.26;23.02;95562.03;5049096;28;20191;-81
2022/03/13 08:18:38;;;;;;;21.20;16.02;;;;;;;23.33;22.73;95558.66;5047453;28;20190;-77
2022/03/13 08:21:05;;;;;;;22.52;15.05;;;;;;;23.39;22.53;95553.44;5047053;28;20206;-74
2022/03/13 08:23:33;;;;;;;22.85;15.75;;;;;;;23.44;22.64;95560.69;5045512;28;20209;-76
2022/03/13 08:26:00;;;;;;;22.33;16.35;;;;;;;23.35;22.50;95557.44;5047188;28;20191;-75
2022/03/13 08:28:27;;;;;;;23.40;17.30;;;;;;;23.11;22.64;95560.56;5047212;28;20199;-83
2022/03/13 08:30:54;;;;;;;22.55;16.10;;;;;;;22.88;22.42;95561.63;5046979;28;20226;-78
2022/03/13 08:33:21;;;;;;;22.05;16.38;;;;;;;22.71;22.49;95555.94;5049520;28;20195;-78
2022/03/13 08:35:48;;;;;;;22.25;15.82;;;;;;;22.63;22.38;95560.50;5050614;28;20223;-76
2022/03/13 08:38:15;;;;;;;22.10;16.25;;;;;;;22.52;22.55;95564.41;5048915;28;20210;-80
2022/03/13 08:40:43;;;;;;;18.85;14.90;;;;;;;22.35;22.46;95560.47;5046884;28;20214;-77
2022/03/13 08:43:10;;;;;;;19.60;14.93;;;;;;;22.18;22.20;95558.16;5045001;28;20186;-74
2022/03/13 08:45:37;;;;;;;21.92;15.10;;;;;;;22.00;22.51;95555.97;5047027;28;20346;-75
2022/03/13 08:48:05;;;;;;;20.77;15.45;;;;;;;21.82;22.66;95555.59;5046666;28;20209;-77
2022/03/13 08:50:32;;;;;;;19.90;14.70;;;;;;;21.66;22.88;95556.66;5046495;28;20191;-77
2022/03/13 08:52:59;;;;;;;21.15;13.80;;;;;;;21.57;23.00;95544.75;5046833;28;20191;-76
2022/03/13 08:55:27;;;;;;;19.92;14.25;;;;;;;21.46;22.98;95540.00;5045675;28;20643;-76
2022/03/13 08:57:55;;;;;;;22.47;13.93;;;;;;;21.29;23.06;95539.41;5047197;28;20187;-75
2022/03/13 09:00:24;;;;;;;22.47;14.27;;;;;;;20.97;23.30;95543.22;5046622;28;20183;-74
2022/03/13 09:02:52;;;;;;;18.60;13.60;;;;;;;20.60;23.28;95549.34;5046385;28;20210;-75
2022/03/13 09:05:20;;;;;;;23.40;14.47;;;;;;;20.25;23.59;95544.63;5046582;28;20203;-74
2022/03/13 09:07:47;;;;;;;21.00;15.17;;;;;;;20.04;23.57;95539.28;5046113;28;20704;-74
2022/03/13 09:10:14;;;;;;;20.63;14.77;;;;;;;19.72;23.69;95512.56;5045800;28;20198;-75
2022/03/13 09:12:41;;;;;;;20.30;13.87;;;;;;;19.82;23.39;95538.31;5028970;28;20216;-76
2022/03/13 09:15:10;;;;;;;22.33;15.83;;;;;;;19.74;23.35;95536.59;5027551;28;20278;-74
2022/03/13 09:17:37;;;;;;;21.07;15.23;;;;;;;19.64;23.37;95528.22;5035059;28;20187;-74
2022/03/13 09:20:04;;;;;;;22.37;15.23;;;;;;;19.53;23.45;95526.00;5047029;28;20195;-75
2022/03/13 09:22:32;;;;;;;25.33;16.73;;;;;;;19.27;23.62;95521.94;5047294;28;20298;-77
2022/03/13 09:24:59;;;;;;;18.90;9.97;;;;;;;19.22;38.56;95526.03;5047214;28;20286;-76
2022/03/13 09:27:26;;;;;;;15.30;10.27;;;;;;;19.34;40.27;95521.25;5047004;28;20781;-74
2022/03/13 09:29:54;;;;;;;22.50;14.13;;;;;;;19.37;37.25;95526.91;5047217;28;20198;-75
2022/03/13 09:32:24;;;;;;;22.07;14.63;;;;;;;19.23;33.72;95515.47;5047215;28;20300;-76
2022/03/13 09:34:51;;;;;;;24.77;14.60;;;;;;;19.02;31.92;95520.44;5046996;28;20209;-75
2022/03/13 09:37:18;;;;;;;22.17;14.90;;;;;;;18.82;30.65;95509.66;5046170;28;20717;-75
2022/03/13 09:39:45;;;;;;;23.13;15.27;;;;;;;18.65;29.57;95515.84;5046818;28;20195;-74
2022/03/13 09:42:12;;;;;;;25.37;15.90;;;;;;;18.48;28.82;95515.94;5047116;28;20195;-73
2022/03/13 09:44:39;;;;;;;22.23;16.50;;;;;;;18.33;27.89;95514.97;5046564;28;20210;-73
2022/03/13 09:47:06;;;;;;;28.47;16.97;;;;;;;18.15;27.39;95510.00;5047250;28;20194;-72
2022/03/13 09:49:35;;;;;;;24.43;16.33;;;;;;;17.92;27.17;95501.25;5046585;28;20191;-73
2022/03/13 09:52:02;;;;;;;23.47;17.73;;;;;;;17.72;26.92;95509.34;5050586;28;20230;-74
2022/03/13 09:54:29;;;;;;;25.83;18.43;;;;;;;17.47;26.78;95489.59;5049971;28;20261;-74
2022/03/13 09:56:55;;;;;;;30.90;18.53;;;;;;;17.30;26.54;95499.91;5050346;28;20577;-76
2022/03/13 09:59:22;;;;;;;24.87;16.93;;;;;;;17.08;26.47;95499.72;5050877;28;20194;-76
2022/03/13 10:01:49;;;;;;;26.93;16.73;;;;;;;16.89;26.42;95503.38;5051138;28;20187;-74
2022/03/13 10:04:16;;;;;;;28.27;18.23;;;;;;;16.74;26.55;95490.25;5050540;28;20245;-74
2022/03/13 10:07:06;;;;;;;31.00;17.07;;;;;;;16.68;26.32;95496.81;5050163;28;20190;-74
2022/03/13 10:09:34;;;;;;;26.83;17.40;;;;;;;16.68;26.29;95488.25;5049957;28;20218;-77
2022/03/13 10:12:09;;;;;;;30.53;15.63;;;;;;;16.64;26.08;95479.19;5049868;28;20223;-78
2022/03/13 10:14:39;;;;;;;28.13;16.33;;;;;;;16.61;26.13;95480.31;5050206;28;20201;-77
2022/03/13 10:17:07;;;;;;;27.87;16.07;;;;;;;16.60;26.27;95476.13;5050507;28;20187;-76
2022/03/13 10:19:33;;;;;;;23.87;16.97;;;;;;;16.60;26.18;95467.56;5049749;28;20649;-77
2022/03/13 10:22:04;;;;;;;24.93;16.73;;;;;;;16.60;26.07;95475.31;5050442;28;20195;-77
2022/03/13 10:24:40;;;;;;;23.47;15.17;;;;;;;16.54;26.01;95472.38;5049283;28;20653;-76
2022/03/13 10:27:12;;;;;;;22.03;15.47;;;;;;;16.45;26.27;95483.66;5049933;28;20283;-75
2022/03/13 10:29:39;;;;;;;26.37;16.10;;;;;;;16.37;26.35;95477.63;5049633;28;20245;-76
2022/03/13 10:32:08;;;;;;;22.53;15.83;;;;;;;16.30;26.32;95475.66;5050260;28;20221;-78
2022/03/13 10:34:35;;;;;;;24.07;14.47;;;;;;;16.28;26.41;95474.22;5049837;28;20195;-76
2022/03/13 10:37:04;;;;;;;20.63;14.90;;;;;;;16.25;26.19;95472.72;5049712;28;20238;-82
2022/03/13 10:39:34;;;;;;;20.63;13.80;;;;;;;16.27;26.29;95468.22;5049418;28;20608;-75
2022/03/13 10:42:02;;;;;;;21.43;15.27;;;;;;;16.27;26.32;95467.41;5049878;28;20282;-74
2022/03/13 10:44:34;;;;;;;18.27;13.77;;;;;;;16.25;26.23;95469.34;5049482;28;20278;-74
2022/03/13 10:47:03;;;;;;;21.50;14.30;;;;;;;16.25;26.34;95461.59;5048051;28;20675;-74
2022/03/13 10:49:40;;;;;;;20.00;13.57;;;;;;;16.25;26.17;95459.00;5052044;28;20187;-75
2022/03/13 10:52:26;;;;;;;20.97;13.33;;;;;;;16.22;26.30;95454.16;5052203;28;20219;-73
2022/03/13 10:54:54;;;;;;;13.80;10.70;;;;;;;16.12;26.51;95446.53;5051762;28;20605;-78
2022/03/13 10:57:22;;;;;;;18.77;11.13;;;;;;;16.13;26.30;95455.06;5051576;28;20203;-75
2022/03/13 11:00:11;;;;;;;14.97;10.03;;;;;;;16.07;26.15;95453.91;5051831;28;20325;-81
2022/03/13 11:02:38;;;;;;;15.27;9.17;;;;;;;16.02;26.18;95451.81;5050912;28;20226;-78
2022/03/13 11:05:06;;;;;;;14.33;8.23;;;;;;;15.92;26.11;95442.53;5052242;28;20209;-76
2022/03/13 11:07:35;;;;;;;14.63;8.90;;;;;;;15.89;25.95;95450.56;5051630;28;20191;-74
2022/03/13 11:10:03;;;;;;;12.87;8.30;;;;;;;15.78;25.81;95439.53;5051952;28;20207;-76
2022/03/13 11:12:31;;;;;;;16.90;8.10;;;;;;;15.74;25.95;95442.56;5050115;28;20722;-75
2022/03/13 11:15:01;;;;;;;10.60;7.50;;;;;;;15.67;25.87;95436.41;5051186;28;20226;-75
2022/03/13 11:17:30;;;;;;;9.03;6.77;;;;;;;15.60;25.84;95433.59;5052034;28;20622;-74
2022/03/13 11:19:58;;;;;;;12.20;7.00;;;;;;;15.51;25.86;95430.16;5051329;28;20730;-74
2022/03/13 11:22:27;;;;;;;11.40;7.50;;;;;;;15.42;25.90;95430.25;5051466;28;20186;-74
2022/03/13 11:24:57;;;;;;;10.97;6.90;;;;;;;15.38;26.02;95432.28;5051281;28;20645;-77
2022/03/13 11:27:26;;;;;;;11.43;7.30;;;;;;;15.28;25.95;95427.22;5051199;28;20191;-76
2022/03/13 11:29:55;;;;;;;10.57;6.93;;;;;;;15.26;25.96;95428.31;5051101;28;20191;-75